Time;durP1;ratioP1;P1;durP2;ratioP2;P2;SDS_P1;SDS_P2;PMS_P1;PMS_P2;Temp;Humidity;BMP_temperature;BMP_pressure;BME280_temperature;BME280_humidity;BME280_pressure;Samples;Min_cycle;Max_cycle;Signal;HPM_P1;HPM_P2
2023/06/16 00:00:34;;;;;;;7.65;4.57;;;19.80;68.20;;;;;;5005952;28;20026;-83
2023/06/16 00:03:01;;;;;;;7.07;4.68;;;19.90;68.40;;;;;;5005232;28;20360;-84
2023/06/16 00:05:28;;;;;;;7.30;5.20;;;19.90;68.30;;;;;;5005066;28;20026;-82
2023/06/16 00:07:54;;;;;;;7.05;3.90;;;19.80;68.20;;;;;;5021395;28;20094;-82
2023/06/16 00:10:20;;;;;;;5.72;3.50;;;19.80;68.30;;;;;;5004740;28;20116;-82
2023/06/16 00:12:45;;;;;;;7.10;3.70;;;19.90;68.50;;;;;;5003718;28;20060;-83
2023/06/16 00:15:11;;;;;;;6.28;3.60;;;19.80;68.30;;;;;;5021274;28;20363;-82
2023/06/16 00:17:44;;;;;;;6.47;3.58;;;19.90;68.40;;;;;;5020989;28;20029;-82
2023/06/16 00:20:11;;;;;;;6.50;3.38;;;19.80;68.30;;;;;;5020763;28;20026;-82
2023/06/16 00:22:36;;;;;;;6.90;4.00;;;19.90;68.20;;;;;;5004458;28;20045;-84
2023/06/16 00:25:02;;;;;;;7.90;3.63;;;19.90;68.10;;;;;;5009777;28;20021;-85
2023/06/16 00:27:27;;;;;;;9.13;4.03;;;19.90;68.20;;;;;;5008777;28;20032;-83
2023/06/16 00:29:53;;;;;;;7.00;3.88;;;19.90;68.10;;;;;;5009664;28;20022;-84
2023/06/16 00:32:18;;;;;;;6.18;3.80;;;19.90;68.00;;;;;;5008835;28;20459;-84
2023/06/16 00:34:45;;;;;;;5.80;3.47;;;19.90;68.10;;;;;;5007680;28;20014;-83
2023/06/16 00:37:11;;;;;;;5.97;3.83;;;19.90;68.10;;;;;;5007741;28;20057;-83
2023/06/16 00:39:36;;;;;;;11.07;4.63;;;19.90;68.00;;;;;;5006959;28;20026;-82
2023/06/16 00:42:02;;;;;;;7.25;3.85;;;19.90;68.00;;;;;;5006617;28;20034;-84
2023/06/16 00:44:27;;;;;;;7.05;3.92;;;19.90;68.00;;;;;;5023513;28;20037;-82
2023/06/16 00:46:53;;;;;;;8.10;4.60;;;19.80;67.80;;;;;;5023891;28;20030;-84
2023/06/16 00:49:19;;;;;;;6.57;4.47;;;19.80;67.90;;;;;;5023294;28;20045;-82
2023/06/16 00:51:48;;;;;;;6.63;4.03;;;19.80;68.00;;;;;;5005053;28;20394;-82
2023/06/16 00:54:13;;;;;;;7.13;4.47;;;19.80;68.00;;;;;;5004969;28;20112;-84
2023/06/16 00:56:41;;;;;;;6.45;4.30;;;19.80;68.10;;;;;;5004092;28;20489;-82
2023/06/16 00:59:06;;;;;;;7.38;3.83;;;19.80;68.10;;;;;;5003609;28;20026;-82
2023/06/16 01:01:34;;;;;;;7.00;4.10;;;19.80;68.00;;;;;;5002943;28;20552;-83
2023/06/16 01:04:00;;;;;;;6.47;3.90;;;19.80;68.00;;;;;;5002795;28;20121;-82
2023/06/16 01:06:47;;;;;;;7.03;4.30;;;19.70;67.90;;;;;;5001802;28;20022;-82
2023/06/16 01:09:17;;;;;;;7.30;4.68;;;19.80;68.00;;;;;;5001794;28;20049;-83
2023/06/16 01:12:07;;;;;;;7.20;4.43;;;19.70;68.00;;;;;;5019697;28;20054;-82
2023/06/16 01:15:01;;;;;;;7.32;4.38;;;19.70;68.00;;;;;;5001057;28;20092;-82
2023/06/16 01:17:28;;;;;;;6.65;4.50;;;19.70;67.90;;;;;;4995354;28;20041;-82
2023/06/16 01:20:12;;;;;;;6.72;4.32;;;19.70;68.00;;;;;;5020512;28;20022;-82
2023/06/16 01:23:14;;;;;;;6.93;4.30;;;19.70;67.90;;;;;;5004310;28;20022;-82
2023/06/16 01:25:43;;;;;;;6.85;4.20;;;19.70;67.90;;;;;;5004225;28;20030;-82
2023/06/16 01:28:10;;;;;;;7.57;4.60;;;19.70;67.90;;;;;;5003592;28;20022;-82
2023/06/16 01:30:40;;;;;;;7.75;4.53;;;19.70;67.80;;;;;;5021505;28;20390;-82
2023/06/16 01:33:06;;;;;;;5.40;3.80;;;19.70;67.80;;;;;;5002867;28;20482;-82
2023/06/16 01:35:33;;;;;;;7.25;4.63;;;19.70;67.80;;;;;;5020397;28;20471;-82
2023/06/16 01:38:00;;;;;;;7.28;4.80;;;19.70;67.70;;;;;;5001878;28;20065;-82
2023/06/16 01:40:27;;;;;;;6.97;4.10;;;19.70;67.80;;;;;;5020902;28;20108;-82
2023/06/16 01:42:55;;;;;;;8.00;4.28;;;19.70;67.70;;;;;;5001978;28;20494;-82
2023/06/16 01:45:21;;;;;;;6.45;3.80;;;19.70;67.80;;;;;;5001892;28;20073;-83
2023/06/16 01:47:47;;;;;;;7.00;3.85;;;19.70;67.70;;;;;;5000863;28;20037;-82
2023/06/16 01:50:13;;;;;;;7.40;4.25;;;19.70;67.70;;;;;;5019547;28;20026;-82
2023/06/16 01:52:39;;;;;;;7.20;3.65;;;19.70;67.50;;;;;;5000953;28;20429;-84
2023/06/16 01:55:05;;;;;;;6.20;4.05;;;19.70;67.50;;;;;;5001296;28;20137;-83
2023/06/16 01:57:31;;;;;;;6.50;4.43;;;19.70;67.40;;;;;;5019475;28;20025;-83
2023/06/16 02:00:04;;;;;;;8.25;4.32;;;19.70;67.40;;;;;;5019697;28;20375;-82
2023/06/16 02:02:30;;;;;;;6.68;3.80;;;19.70;67.40;;;;;;5018369;28;20029;-83
2023/06/16 02:05:00;;;;;;;7.43;4.13;;;19.70;67.30;;;;;;5018470;28;20026;-82
2023/06/16 02:07:32;;;;;;;6.45;4.10;;;19.70;67.30;;;;;;5016931;28;20033;-82
2023/06/16 02:09:58;;;;;;;;;;;19.70;67.20;;;;;;5000222;28;20040;-84
2023/06/16 02:12:24;;;;;;;6.82;4.15;;;19.70;67.10;;;;;;4999754;28;19905;-82
2023/06/16 02:14:51;;;;;;;6.70;4.18;;;19.70;67.10;;;;;;4999309;28;20022;-82
2023/06/16 02:17:16;;;;;;;7.25;4.18;;;19.70;67.10;;;;;;5016884;28;20025;-82
2023/06/16 02:19:43;;;;;;;6.80;4.07;;;19.70;67.00;;;;;;4998506;28;20021;-83
2023/06/16 02:22:09;;;;;;;7.43;4.72;;;19.70;67.00;;;;;;4998714;28;20407;-83
2023/06/16 02:24:35;;;;;;;6.10;4.00;;;19.70;67.10;;;;;;4998948;28;20061;-83
2023/06/16 02:27:03;;;;;;;6.65;3.90;;;19.70;67.00;;;;;;4998432;28;20034;-82
2023/06/16 02:29:29;;;;;;;8.32;4.65;;;19.60;67.00;;;;;;4998183;28;20100;-83
2023/06/16 02:31:55;;;;;;;7.75;4.75;;;19.60;67.10;;;;;;4998176;28;20036;-82
2023/06/16 02:34:20;;;;;;;7.20;4.90;;;19.60;67.00;;;;;;4993615;28;20029;-82
2023/06/16 02:36:46;;;;;;;7.43;4.70;;;19.60;67.10;;;;;;4992820;28;20025;-82
2023/06/16 02:39:13;;;;;;;7.00;4.72;;;19.60;67.10;;;;;;4998477;28;20022;-82
2023/06/16 02:41:39;;;;;;;6.40;4.47;;;19.60;67.10;;;;;;4998212;28;20033;-81
2023/06/16 02:44:04;;;;;;;6.60;4.30;;;19.60;67.20;;;;;;4997940;28;20034;-82
2023/06/16 02:46:30;;;;;;;8.05;4.50;;;19.60;67.30;;;;;;4997358;28;20458;-82
2023/06/16 02:48:55;;;;;;;8.55;5.50;;;19.60;67.20;;;;;;5015811;28;20069;-84
2023/06/16 02:51:21;;;;;;;7.97;4.75;;;19.60;67.20;;;;;;4997810;28;20037;-82
2023/06/16 02:53:46;;;;;;;7.35;5.05;;;19.60;67.20;;;;;;5015612;28;20081;-82
2023/06/16 02:56:12;;;;;;;7.65;4.80;;;19.60;67.20;;;;;;5017509;28;20105;-85
2023/06/16 02:58:38;;;;;;;7.22;4.90;;;19.60;67.20;;;;;;5010512;28;20093;-85
2023/06/16 03:01:04;;;;;;;8.20;4.45;;;19.60;67.20;;;;;;5028649;28;20546;-84
2023/06/16 03:03:31;;;;;;;7.38;4.60;;;19.60;67.20;;;;;;5010887;28;20045;-83
2023/06/16 03:05:58;;;;;;;7.78;4.80;;;19.50;67.30;;;;;;5028293;28;20026;-84
2023/06/16 03:08:24;;;;;;;7.88;5.13;;;19.50;67.20;;;;;;5027406;28;20026;-82
2023/06/16 03:10:51;;;;;;;7.68;4.45;;;19.60;67.20;;;;;;5009287;28;20032;-83
2023/06/16 03:13:17;;;;;;;7.75;4.63;;;19.60;67.20;;;;;;5008188;28;20022;-84
2023/06/16 03:15:43;;;;;;;7.95;4.57;;;19.60;67.20;;;;;;5025506;28;20076;-83
2023/06/16 03:18:09;;;;;;;7.93;4.53;;;19.60;67.30;;;;;;5007776;28;20045;-84
2023/06/16 03:20:35;;;;;;;7.38;4.75;;;19.60;67.20;;;;;;5006800;28;20037;-82
2023/06/16 03:23:00;;;;;;;7.63;4.60;;;19.60;67.30;;;;;;5024687;28;20025;-83
2023/06/16 03:25:26;;;;;;;7.60;4.47;;;19.60;67.20;;;;;;5006404;28;20148;-82
2023/06/16 03:27:52;;;;;;;6.82;4.43;;;19.60;67.10;;;;;;5005284;28;20026;-84
2023/06/16 03:30:17;;;;;;;7.25;4.78;;;19.60;67.20;;;;;;5005733;28;20026;-83
2023/06/16 03:32:44;;;;;;;6.93;4.80;;;19.60;67.20;;;;;;5004972;28;20022;-82
2023/06/16 03:35:10;;;;;;;8.68;4.60;;;19.60;67.20;;;;;;5022685;28;20022;-82
2023/06/16 03:37:35;;;;;;;6.82;4.40;;;19.60;67.20;;;;;;5021928;28;20037;-82
2023/06/16 03:40:05;;;;;;;7.43;4.72;;;19.60;67.10;;;;;;5003713;28;20509;-83
2023/06/16 03:42:32;;;;;;;6.82;4.95;;;19.60;67.20;;;;;;5021065;28;20524;-82
2023/06/16 03:44:58;;;;;;;7.78;4.80;;;19.60;67.10;;;;;;5021662;28;20034;-82
2023/06/16 03:47:24;;;;;;;7.53;4.85;;;19.60;67.00;;;;;;5026606;28;20042;-84
2023/06/16 03:49:49;;;;;;;6.75;4.80;;;19.60;67.00;;;;;;5010054;28;20021;-84
2023/06/16 03:52:15;;;;;;;8.77;5.05;;;19.60;67.10;;;;;;5009636;28;20124;-84
2023/06/16 03:54:40;;;;;;;8.57;5.10;;;19.50;67.10;;;;;;5008822;28;20034;-82
2023/06/16 03:57:06;;;;;;;8.52;5.07;;;19.50;67.20;;;;;;5008029;28;20045;-82
2023/06/16 03:59:31;;;;;;;7.45;5.05;;;19.50;67.10;;;;;;5008377;28;20018;-83
2023/06/16 04:01:57;;;;;;;8.30;5.60;;;19.50;67.10;;;;;;5026045;28;20045;-84
2023/06/16 04:04:25;;;;;;;7.55;5.40;;;19.50;67.10;;;;;;5007209;28;20022;-85
2023/06/16 04:06:51;;;;;;;9.10;5.18;;;19.50;67.20;;;;;;5024187;28;20084;-84
2023/06/16 04:09:16;;;;;;;9.93;5.90;;;19.50;67.20;;;;;;5024459;28;20038;-84
2023/06/16 04:11:42;;;;;;;7.45;5.18;;;19.50;67.30;;;;;;5004778;28;20032;-81
2023/06/16 04:14:09;;;;;;;7.53;5.40;;;19.50;67.30;;;;;;4997041;28;20459;-80
2023/06/16 04:16:40;;;;;;;9.27;5.65;;;19.50;67.30;;;;;;5009088;28;20052;-81
2023/06/16 04:19:06;;;;;;;8.60;5.50;;;19.50;67.30;;;;;;5009098;28;20117;-81
2023/06/16 04:21:32;;;;;;;8.35;5.40;;;19.50;67.30;;;;;;4999889;28;20290;-81
2023/06/16 04:23:57;;;;;;;7.80;5.03;;;19.50;67.30;;;;;;5015992;28;20037;-82
2023/06/16 04:26:28;;;;;;;8.45;5.97;;;19.50;67.30;;;;;;5024751;28;20033;-79
2023/06/16 04:28:55;;;;;;;7.43;5.25;;;19.50;67.40;;;;;;4995456;28;20037;-81
2023/06/16 04:31:21;;;;;;;8.15;5.47;;;19.50;67.40;;;;;;4995546;28;20080;-84
2023/06/16 04:33:48;;;;;;;8.57;5.43;;;19.50;67.40;;;;;;5009941;28;20025;-79
2023/06/16 04:36:14;;;;;;;7.90;5.68;;;19.50;67.50;;;;;;4997367;28;20022;-81
2023/06/16 04:38:40;;;;;;;8.52;5.70;;;19.50;67.50;;;;;;4993397;28;20038;-85
2023/06/16 04:41:06;;;;;;;8.70;5.57;;;19.50;67.40;;;;;;4995675;28;20034;-81
2023/06/16 04:43:32;;;;;;;8.57;5.93;;;19.50;67.40;;;;;;4997204;28;20061;-82
2023/06/16 04:46:00;;;;;;;8.80;4.90;;;19.50;67.40;;;;;;4993852;28;20048;-83
2023/06/16 04:48:25;;;;;;;9.07;5.93;;;19.50;67.50;;;;;;4995091;28;20530;-84
2023/06/16 04:50:53;;;;;;;8.73;5.55;;;19.50;67.50;;;;;;4995100;28;20069;-85
2023/06/16 04:53:20;;;;;;;8.57;5.13;;;19.50;67.60;;;;;;4981051;28;20029;-83
2023/06/16 04:55:45;;;;;;;8.43;4.70;;;19.50;67.60;;;;;;4996939;28;20045;-83
2023/06/16 04:58:14;;;;;;;8.68;5.13;;;19.60;67.60;;;;;;4996392;28;20029;-84
2023/06/16 05:00:51;;;;;;;9.88;6.05;;;19.50;67.50;;;;;;4996869;28;20406;-82
2023/06/16 05:03:22;;;;;;;7.80;4.75;;;19.60;67.40;;;;;;4996463;28;20034;-86
2023/06/16 05:05:48;;;;;;;7.80;4.80;;;19.40;67.30;;;;;;4994904;28;20537;-81
2023/06/16 05:08:14;;;;;;;12.82;5.30;;;19.50;67.40;;;;;;4994334;28;20060;-82
2023/06/16 05:10:40;;;;;;;11.90;5.05;;;19.60;67.50;;;;;;4995526;28;20026;-83
2023/06/16 05:13:06;;;;;;;9.68;5.38;;;19.60;67.60;;;;;;4996786;28;20049;-83
2023/06/16 05:15:31;;;;;;;10.45;5.10;;;19.60;67.50;;;;;;4996679;28;20831;-82
2023/06/16 05:17:57;;;;;;;7.35;4.70;;;19.60;67.60;;;;;;5013799;28;20034;-83
2023/06/16 05:20:22;;;;;;;8.52;4.90;;;19.60;67.50;;;;;;4996049;28;20030;-83
2023/06/16 05:22:48;;;;;;;9.65;4.90;;;19.60;67.60;;;;;;4995543;28;20030;-82
2023/06/16 05:25:13;;;;;;;9.40;4.95;;;19.60;67.70;;;;;;5015802;28;20037;-83
2023/06/16 05:27:39;;;;;;;9.27;5.22;;;19.60;67.80;;;;;;4996346;28;20030;-86
2023/06/16 05:30:05;;;;;;;10.45;5.00;;;19.60;67.90;;;;;;5014555;28;20053;-84
2023/06/16 05:32:30;;;;;;;8.15;4.90;;;19.50;67.90;;;;;;5020638;28;20112;-84
2023/06/16 05:34:56;;;;;;;8.60;5.30;;;19.50;67.90;;;;;;5018106;28;20075;-85
2023/06/16 05:37:22;;;;;;;9.00;5.25;;;19.60;68.10;;;;;;5004787;28;20057;-83
2023/06/16 05:39:49;;;;;;;9.90;6.22;;;19.50;68.00;;;;;;4999617;28;20117;-85
2023/06/16 05:42:15;;;;;;;8.80;5.22;;;19.60;68.00;;;;;;5000606;28;20029;-83
2023/06/16 05:44:42;;;;;;;7.90;5.20;;;19.50;68.00;;;;;;4998758;28;20225;-84
2023/06/16 05:47:08;;;;;;;7.28;4.38;;;19.50;68.00;;;;;;4999581;28;20514;-83
2023/06/16 05:49:33;;;;;;;8.35;4.72;;;19.50;68.00;;;;;;5011606;28;20098;-85
2023/06/16 05:52:01;;;;;;;9.07;5.25;;;19.50;68.00;;;;;;5035763;28;20025;-84
2023/06/16 05:54:27;;;;;;;7.90;5.07;;;19.60;68.00;;;;;;5035578;28;20043;-85
2023/06/16 05:56:53;;;;;;;7.90;4.82;;;19.50;67.90;;;;;;5034963;28;20077;-85
2023/06/16 05:59:18;;;;;;;7.20;4.90;;;19.60;68.00;;;;;;5035894;28;20502;-84
2023/06/16 06:01:43;;;;;;;7.45;5.20;;;19.60;68.10;;;;;;5032403;28;20049;-83
2023/06/16 06:04:12;;;;;;;6.78;4.93;;;19.50;68.70;;;;;;5014811;28;20065;-86
2023/06/16 06:06:38;;;;;;;7.50;5.13;;;19.50;68.20;;;;;;5018971;28;20699;-86
2023/06/16 06:09:09;;;;;;;9.15;5.72;;;19.50;68.20;;;;;;5033991;28;20056;-86
2023/06/16 06:11:36;;;;;;;8.77;5.55;;;19.50;68.20;;;;;;5021457;28;20029;-88
2023/06/16 06:14:01;;;;;;;13.55;6.25;;;19.50;67.70;;;;;;5027013;28;20052;-88
2023/06/16 06:16:27;;;;;;;15.57;7.22;;;19.60;67.50;;;;;;5023782;28;20486;-88
2023/06/16 06:18:53;;;;;;;16.08;6.20;;;19.60;67.50;;;;;;5018351;28;20108;-86
2023/06/16 06:21:18;;;;;;;15.25;7.68;;;19.50;67.30;;;;;;5015663;28;20033;-83
2023/06/16 06:23:44;;;;;;;11.65;7.07;;;19.60;67.40;;;;;;5015213;28;20040;-86
2023/06/16 06:26:09;;;;;;;13.45;7.07;;;19.60;67.70;;;;;;5014568;28;20036;-83
2023/06/16 06:28:35;;;;;;;14.88;7.45;;;19.60;67.90;;;;;;5014865;28;20034;-85
2023/06/16 06:31:00;;;;;;;11.18;7.53;;;19.60;67.90;;;;;;5015272;28;20454;-84
2023/06/16 06:33:26;;;;;;;16.33;7.72;;;19.60;68.00;;;;;;5014670;28;20032;-84
2023/06/16 06:35:52;;;;;;;12.23;8.13;;;19.60;68.10;;;;;;5014902;28;20030;-83
2023/06/16 06:38:17;;;;;;;14.57;7.57;;;19.60;68.20;;;;;;5014069;28;20033;-86
2023/06/16 06:40:43;;;;;;;14.93;7.63;;;19.70;68.60;;;;;;5031906;28;20037;-85
2023/06/16 06:43:08;;;;;;;13.60;7.95;;;19.60;68.50;;;;;;5014205;28;20029;-85
2023/06/16 06:45:34;;;;;;;11.25;7.82;;;19.70;68.60;;;;;;5014283;28;20065;-82
2023/06/16 06:47:59;;;;;;;12.73;8.48;;;19.70;68.60;;;;;;5031779;28;20032;-85
2023/06/16 06:50:25;;;;;;;13.52;7.85;;;19.70;68.50;;;;;;5032069;28;20060;-84
2023/06/16 06:52:50;;;;;;;13.10;7.97;;;19.70;68.50;;;;;;5014200;28;20056;-81
2023/06/16 06:55:16;;;;;;;13.30;8.15;;;19.70;68.70;;;;;;5014780;28;20119;-83
2023/06/16 06:57:42;;;;;;;15.43;8.30;;;19.70;68.90;;;;;;5031963;28;20056;-82
2023/06/16 07:00:08;;;;;;;14.95;8.50;;;19.70;69.00;;;;;;5032573;28;20379;-82
2023/06/16 07:02:35;;;;;;;10.88;8.20;;;19.70;69.10;;;;;;5017127;28;20063;-84
2023/06/16 07:05:01;;;;;;;14.57;8.48;;;19.70;69.30;;;;;;5016173;28;20442;-82
2023/06/16 07:07:26;;;;;;;11.80;8.00;;;19.70;69.30;;;;;;5015368;28;20052;-84
2023/06/16 07:09:51;;;;;;;11.43;8.10;;;19.70;69.30;;;;;;5021707;28;20018;-87
2023/06/16 07:12:17;;;;;;;12.32;8.32;;;19.70;69.20;;;;;;5026515;28;20400;-86
2023/06/16 07:14:45;;;;;;;13.68;8.48;;;19.80;69.20;;;;;;5026053;28;20089;-86
2023/06/16 07:17:11;;;;;;;12.93;8.50;;;19.80;69.20;;;;;;5025198;28;20026;-86
2023/06/16 07:19:36;;;;;;;12.63;8.50;;;19.80;69.20;;;;;;5024629;28;20040;-85
2023/06/16 07:22:02;;;;;;;12.07;8.02;;;19.80;69.20;;;;;;5025227;28;20446;-85
2023/06/16 07:24:27;;;;;;;16.65;8.32;;;19.80;69.30;;;;;;5024632;28;20021;-86
2023/06/16 07:26:53;;;;;;;12.15;7.95;;;19.80;69.20;;;;;;5023724;28;20030;-85
2023/06/16 07:29:19;;;;;;;11.52;8.00;;;19.90;69.30;;;;;;5024465;28;20088;-85
2023/06/16 07:31:45;;;;;;;12.18;8.32;;;19.90;69.20;;;;;;5022640;28;20017;-87
2023/06/16 07:34:10;;;;;;;11.45;8.63;;;19.90;69.30;;;;;;5022218;28;20033;-86
2023/06/16 07:36:37;;;;;;;13.63;9.48;;;19.90;69.20;;;;;;5040867;28;20398;-86
2023/06/16 07:39:02;;;;;;;12.90;9.13;;;19.90;69.10;;;;;;5040170;28;20025;-85
2023/06/16 07:41:28;;;;;;;13.77;8.13;;;19.90;69.20;;;;;;5021940;28;20072;-86
2023/06/16 07:43:53;;;;;;;12.32;8.70;;;20.00;69.10;;;;;;5039803;28;20116;-85
2023/06/16 07:46:19;;;;;;;10.95;8.52;;;20.00;69.20;;;;;;5021253;28;20032;-84
2023/06/16 07:48:45;;;;;;;11.32;8.52;;;20.00;69.20;;;;;;5020859;28;20025;-86
2023/06/16 07:51:10;;;;;;;14.25;9.43;;;20.00;69.10;;;;;;5021002;28;20052;-86
2023/06/16 07:53:36;;;;;;;13.52;10.50;;;20.00;69.20;;;;;;5038368;28;20032;-84
2023/06/16 07:56:02;;;;;;;13.23;9.68;;;20.00;69.10;;;;;;5020277;28;20099;-85
2023/06/16 07:58:28;;;;;;;13.20;9.85;;;20.10;69.00;;;;;;5019649;28;20095;-85
2023/06/16 08:00:53;;;;;;;14.13;9.10;;;20.10;69.00;;;;;;5019808;28;20513;-85
2023/06/16 08:03:19;;;;;;;12.10;9.15;;;20.20;68.90;;;;;;5020000;28;20434;-86
2023/06/16 08:05:45;;;;;;;14.30;10.65;;;20.20;68.80;;;;;;5037867;28;20033;-85
2023/06/16 08:08:10;;;;;;;11.80;8.88;;;20.30;68.80;;;;;;5037106;28;20328;-86
2023/06/16 08:10:36;;;;;;;12.75;10.05;;;20.20;68.60;;;;;;5019146;28;20032;-85
2023/06/16 08:13:01;;;;;;;9.52;7.43;;;20.30;68.70;;;;;;5019245;28;20021;-87
2023/06/16 08:15:27;;;;;;;10.20;7.05;;;20.20;68.60;;;;;;5036084;28;20022;-86
2023/06/16 08:17:52;;;;;;;10.93;7.65;;;20.30;68.70;;;;;;5016852;28;20025;-85
2023/06/16 08:20:18;;;;;;;9.25;7.88;;;20.20;68.70;;;;;;5017846;28;20029;-86
2023/06/16 08:22:44;;;;;;;9.27;7.47;;;20.20;68.70;;;;;;5035534;28;20029;-85
2023/06/16 08:25:09;;;;;;;10.38;8.00;;;20.30;68.80;;;;;;5018050;28;20553;-84
2023/06/16 08:27:35;;;;;;;10.23;7.70;;;20.30;68.80;;;;;;5016969;28;20025;-85
2023/06/16 08:30:01;;;;;;;9.05;7.20;;;20.20;68.90;;;;;;5017103;28;20021;-85
2023/06/16 08:32:27;;;;;;;9.57;7.38;;;20.20;68.70;;;;;;5034876;28;20030;-85
2023/06/16 08:34:52;;;;;;;10.07;7.75;;;20.20;68.80;;;;;;5016673;28;20033;-85
2023/06/16 08:37:18;;;;;;;8.60;7.07;;;20.20;68.90;;;;;;5016178;28;20112;-85
2023/06/16 08:39:44;;;;;;;11.95;7.38;;;20.20;69.00;;;;;;5016405;28;20470;-84
2023/06/16 08:42:12;;;;;;;9.77;7.43;;;20.30;69.10;;;;;;5016186;28;20028;-85
2023/06/16 08:44:39;;;;;;;9.23;7.40;;;20.20;69.10;;;;;;5015414;28;20057;-83
2023/06/16 08:47:05;;;;;;;10.32;7.43;;;20.30;69.10;;;;;;5015619;28;20029;-85
2023/06/16 08:49:31;;;;;;;10.00;7.68;;;20.30;69.10;;;;;;5015361;28;20512;-84
2023/06/16 08:52:01;;;;;;;11.07;9.23;;;20.30;69.20;;;;;;5034201;28;20402;-85
2023/06/16 08:54:31;;;;;;;9.80;7.50;;;20.30;69.10;;;;;;5033695;28;20584;-85
2023/06/16 08:56:58;;;;;;;9.68;7.95;;;20.40;69.30;;;;;;5015840;28;20025;-85
2023/06/16 08:59:28;;;;;;;10.32;8.77;;;20.30;69.30;;;;;;5015146;28;20032;-85
2023/06/16 09:01:54;;;;;;;8.80;7.15;;;20.40;69.20;;;;;;5033063;28;20445;-85
2023/06/16 09:04:20;;;;;;;9.35;7.15;;;20.40;69.30;;;;;;5015379;28;20025;-85
2023/06/16 09:06:54;;;;;;;9.40;7.68;;;20.40;69.40;;;;;;5014935;28;20025;-84
2023/06/16 09:09:19;;;;;;;8.20;6.80;;;20.40;69.30;;;;;;5015451;28;20025;-85
2023/06/16 09:12:02;;;;;;;9.38;7.53;;;20.40;69.30;;;;;;5014826;28;20014;-85
2023/06/16 09:14:31;;;;;;;10.57;9.10;;;20.40;69.10;;;;;;5014950;28;20021;-85
2023/06/16 09:16:59;;;;;;;10.88;8.32;;;20.40;69.00;;;;;;5014538;28;20048;-86
2023/06/16 09:19:25;;;;;;;8.63;6.93;;;20.40;69.20;;;;;;5033212;28;20032;-84
2023/06/16 09:21:54;;;;;;;8.55;6.70;;;20.40;69.20;;;;;;5014574;28;20029;-84
2023/06/16 09:24:26;;;;;;;9.80;7.40;;;20.40;69.10;;;;;;5014702;28;20488;-85
2023/06/16 09:26:55;;;;;;;8.88;6.75;;;20.50;69.10;;;;;;5014367;28;20116;-85
2023/06/16 09:29:24;;;;;;;9.70;8.10;;;20.50;69.20;;;;;;5014286;28;20030;-84
2023/06/16 09:31:49;;;;;;;9.98;8.20;;;20.50;68.90;;;;;;5032086;28;20025;-84
2023/06/16 09:34:15;;;;;;;9.02;7.55;;;20.50;68.70;;;;;;5014323;28;20021;-84
2023/06/16 09:36:41;;;;;;;9.00;7.18;;;20.50;68.50;;;;;;5024695;28;20117;-86
2023/06/16 09:39:07;;;;;;;9.30;7.93;;;20.60;68.50;;;;;;5026068;28;20402;-86
2023/06/16 09:41:36;;;;;;;8.98;7.45;;;20.60;68.30;;;;;;5027558;28;20084;-86
2023/06/16 09:44:02;;;;;;;9.05;7.47;;;20.70;68.30;;;;;;5028740;28;20037;-86
2023/06/16 09:46:29;;;;;;;10.23;7.50;;;20.70;68.20;;;;;;5027640;28;20021;-86
2023/06/16 09:48:54;;;;;;;9.52;7.13;;;20.70;68.20;;;;;;5027292;28;20026;-84
2023/06/16 09:51:23;;;;;;;9.48;6.90;;;20.70;68.30;;;;;;5027190;28;20048;-85
2023/06/16 09:53:50;;;;;;;9.18;7.00;;;20.70;68.30;;;;;;5044687;28;20030;-86
2023/06/16 09:56:19;;;;;;;8.40;6.95;;;20.70;68.20;;;;;;5044219;28;20022;-84
2023/06/16 09:58:46;;;;;;;7.75;6.03;;;20.70;68.60;;;;;;5026382;28;20089;-84
2023/06/16 10:01:15;;;;;;;7.68;6.18;;;20.70;68.10;;;;;;5025612;28;20102;-86
2023/06/16 10:03:43;;;;;;;7.20;5.72;;;20.70;68.20;;;;;;5043364;28;20025;-86
2023/06/16 10:06:24;;;;;;;8.77;5.95;;;20.70;68.30;;;;;;5024599;28;20371;-86
2023/06/16 10:08:51;;;;;;;7.63;5.70;;;20.60;68.40;;;;;;5024205;28;20508;-85
2023/06/16 10:11:18;;;;;;;8.15;5.93;;;20.60;68.60;;;;;;5024125;28;20025;-84
2023/06/16 10:13:51;;;;;;;7.60;5.50;;;20.60;68.70;;;;;;5023953;28;20057;-85
2023/06/16 10:16:20;;;;;;;8.38;5.80;;;20.50;68.90;;;;;;5041583;28;20033;-84
2023/06/16 10:18:47;;;;;;;10.38;6.50;;;20.50;68.80;;;;;;5023059;28;20026;-85
2023/06/16 10:21:13;;;;;;;8.27;6.25;;;20.60;68.90;;;;;;5041578;28;20032;-84
2023/06/16 10:23:39;;;;;;;7.55;5.60;;;20.50;69.50;;;;;;5025348;28;20029;-86
2023/06/16 10:26:06;;;;;;;7.40;5.50;;;20.60;69.00;;;;;;5046538;28;20083;-86
2023/06/16 10:28:35;;;;;;;8.13;6.57;;;20.60;69.10;;;;;;5027786;28;20037;-86
2023/06/16 10:31:01;;;;;;;8.23;6.45;;;20.60;69.00;;;;;;5027708;28;20038;-85
2023/06/16 10:33:28;;;;;;;7.70;5.70;;;20.60;69.00;;;;;;5027318;28;20025;-86
2023/06/16 10:36:01;;;;;;;8.95;6.72;;;20.60;68.90;;;;;;5026788;28;20512;-85
2023/06/16 10:38:38;;;;;;;9.32;6.38;;;20.60;69.00;;;;;;5044502;28;20105;-85
2023/06/16 10:41:06;;;;;;;8.35;5.70;;;20.60;69.00;;;;;;5026196;28;20033;-86
2023/06/16 10:43:31;;;;;;;9.15;6.10;;;20.60;68.80;;;;;;5025985;28;20040;-87
2023/06/16 10:46:20;;;;;;;8.10;5.97;;;20.60;68.80;;;;;;5025570;28;20116;-85
2023/06/16 10:49:09;;;;;;;8.18;5.82;;;20.60;68.70;;;;;;5024331;28;20430;-84
2023/06/16 10:51:46;;;;;;;7.57;5.85;;;20.60;68.60;;;;;;5023952;28;20137;-85
2023/06/16 10:54:35;;;;;;;10.38;5.90;;;20.60;68.70;;;;;;5024202;28;20029;-84
2023/06/16 10:57:07;;;;;;;7.50;5.68;;;20.60;68.70;;;;;;5023547;28;20026;-84
2023/06/16 11:00:13;;;;;;;8.13;5.60;;;20.60;68.60;;;;;;5041608;28;20101;-85
2023/06/16 11:02:52;;;;;;;7.05;5.35;;;20.60;68.90;;;;;;4963031;28;20038;-85
2023/06/16 11:05:22;;;;;;;8.57;5.35;;;20.60;68.60;;;;;;4963082;28;20026;-85
2023/06/16 11:07:58;;;;;;;8.60;5.47;;;20.70;68.40;;;;;;4997824;28;20076;-85
2023/06/16 11:10:24;;;;;;;7.28;5.40;;;20.70;68.50;;;;;;5021506;28;20286;-84
2023/06/16 11:12:50;;;;;;;6.80;5.07;;;20.70;68.40;;;;;;5021089;28;20018;-84
2023/06/16 11:15:16;;;;;;;8.90;6.07;;;20.70;68.30;;;;;;5021591;28;20093;-85
2023/06/16 11:17:43;;;;;;;11.48;6.53;;;20.70;68.20;;;;;;5038734;28;20039;-84
2023/06/16 11:20:11;;;;;;;10.25;5.20;;;20.70;67.80;;;;;;5020880;28;20111;-84
2023/06/16 11:22:36;;;;;;;10.90;5.35;;;20.70;67.60;;;;;;5020304;28;20490;-84
2023/06/16 11:25:03;;;;;;;10.00;6.03;;;20.70;67.80;;;;;;5038229;28;20040;-85
2023/06/16 11:27:30;;;;;;;11.98;5.18;;;20.70;67.80;;;;;;5037293;28;20018;-84
2023/06/16 11:29:56;;;;;;;10.57;4.93;;;20.70;67.60;;;;;;5037718;28;20071;-84
2023/06/16 11:32:27;;;;;;;12.95;5.07;;;20.70;66.70;;;;;;5019609;28;20021;-84
2023/06/16 11:34:55;;;;;;;9.30;5.28;;;20.70;66.40;;;;;;5018985;28;20040;-84
2023/06/16 11:37:21;;;;;;;11.32;5.38;;;20.70;66.50;;;;;;5019056;28;20025;-85
2023/06/16 11:39:46;;;;;;;14.27;5.07;;;20.60;66.50;;;;;;5035596;28;20028;-86
2023/06/16 11:42:13;;;;;;;9.23;5.18;;;20.60;66.70;;;;;;5017985;28;20017;-83
2023/06/16 11:44:39;;;;;;;11.65;5.45;;;20.60;67.30;;;;;;5036275;28;20581;-85
2023/06/16 11:47:04;;;;;;;9.52;5.05;;;20.50;66.90;;;;;;5018541;28;20049;-83
2023/06/16 11:49:33;;;;;;;9.48;5.25;;;20.60;67.20;;;;;;5017910;28;20033;-83
2023/06/16 11:51:58;;;;;;;8.90;5.00;;;20.50;67.30;;;;;;5035901;28;20033;-84
2023/06/16 11:54:24;;;;;;;9.65;5.18;;;20.50;67.50;;;;;;5017220;28;20022;-84
2023/06/16 11:56:50;;;;;;;11.68;6.03;;;20.50;67.80;;;;;;5017322;28;20033;-84
2023/06/16 11:59:16;;;;;;;8.15;5.47;;;20.50;67.80;;;;;;5017773;28;20418;-85
2023/06/16 12:01:43;;;;;;;8.75;5.82;;;20.50;67.90;;;;;;5016647;28;20163;-84
2023/06/16 12:04:08;;;;;;;10.32;5.90;;;20.50;67.90;;;;;;5034242;28;20025;-83
2023/06/16 12:06:37;;;;;;;11.07;6.03;;;20.50;68.10;;;;;;5033940;28;20051;-85
2023/06/16 12:09:03;;;;;;;8.57;5.72;;;20.50;68.10;;;;;;5016346;28;20095;-84
2023/06/16 12:11:29;;;;;;;9.73;5.70;;;20.50;68.20;;;;;;5034412;28;20386;-84
2023/06/16 12:13:56;;;;;;;9.48;5.68;;;20.50;68.40;;;;;;5034316;28;20033;-84
2023/06/16 12:16:22;;;;;;;8.80;5.10;;;20.50;68.30;;;;;;5034048;28;20030;-83
2023/06/16 12:18:52;;;;;;;7.07;4.90;;;20.50;68.40;;;;;;5034634;28;20103;-84
2023/06/16 12:21:22;;;;;;;9.07;5.95;;;20.50;68.60;;;;;;5033868;28;20079;-84
2023/06/16 12:23:53;;;;;;;9.60;5.20;;;20.50;68.70;;;;;;5033868;28;20527;-84
2023/06/16 12:26:40;;;;;;;8.35;5.53;;;20.40;68.50;;;;;;5015668;28;20087;-83
2023/06/16 12:29:16;;;;;;;7.60;5.63;;;20.40;68.70;;;;;;5033620;28;20033;-83
2023/06/16 12:32:00;;;;;;;8.98;6.13;;;20.50;68.50;;;;;;5033373;28;20034;-84
2023/06/16 12:34:31;;;;;;;8.63;5.70;;;20.50;68.30;;;;;;5015113;28;20440;-84
2023/06/16 12:37:10;;;;;;;11.32;7.15;;;20.50;68.20;;;;;;5015078;28;20021;-84
2023/06/16 12:39:37;;;;;;;7.65;6.25;;;20.50;68.30;;;;;;5015120;28;20041;-83
2023/06/16 12:42:05;;;;;;;10.05;7.05;;;20.50;68.10;;;;;;5033266;28;20022;-84
2023/06/16 12:44:41;;;;;;;11.02;7.22;;;20.50;68.10;;;;;;5032732;28;20030;-84